Baevo, Russia
Current Conditions -  °F | °C
As of 2:30 PM on Thursday 18 Dec 2014 (Local Time) from UNBB Reporting Station
Clear Clear  
Wind Chill: 14°   Ceiling: Unl
Heat Index: 14°   Visibility: 6mi
Dew Point: 10°   Wind: 0mph
Humidity: 86%   Direction: NA
Pressure: 30.56"   Gusts: NA
Location:  53.27°N, 80.77°E
Report Text: UNBB 180730Z 00000MPS CAVOK M10/M12 Q1035 NOSIG RMK QFE754/100524450534
Loading
Personal Weather Stations






























Interactive Weather Map New forecast layout! Learn more

10-Day Weather Forecast

Advertisements
Track Severe Weather on mobile